createdAt,value
2023-02-02T00:04:29.495Z,4.10
2023-02-02T00:09:32.740Z,3.15
2023-02-02T00:14:34.857Z,3.67
2023-02-02T00:19:37.251Z,2.95
2023-02-02T00:24:39.362Z,3.03
2023-02-02T00:29:41.430Z,3.35
2023-02-02T00:34:43.491Z,2.65
2023-02-02T00:39:45.563Z,2.47
2023-02-02T00:45:06.279Z,2.72
2023-02-02T00:50:09.281Z,2.20
2023-02-02T00:55:12.574Z,2.65
2023-02-02T01:00:17.340Z,2.20
2023-02-02T01:05:20.585Z,2.58
2023-02-02T01:10:22.611Z,2.40
2023-02-02T01:15:25.040Z,2.25
2023-02-02T01:20:27.664Z,2.45
2023-02-02T01:25:32.502Z,2.05
2023-02-02T01:30:34.536Z,2.00
2023-02-02T01:35:36.531Z,2.28
2023-02-02T01:40:48.025Z,2.47
2023-02-02T01:45:54.406Z,2.67
2023-02-02T01:51:00.784Z,2.47
2023-02-02T01:56:06.051Z,2.40
2023-02-02T02:01:08.832Z,2.17
2023-02-02T02:06:17.011Z,1.92
2023-02-02T02:11:20.581Z,2.40
2023-02-02T02:16:22.717Z,2.65
2023-02-02T02:22:13.447Z,2.63
2023-02-02T02:27:21.641Z,2.20
2023-02-02T02:32:38.030Z,2.25
2023-02-02T02:38:22.378Z,2.72
2023-02-02T02:43:33.027Z,2.47
2023-02-02T02:48:35.295Z,2.10
2023-02-02T02:53:38.098Z,2.30
2023-02-02T02:58:51.508Z,2.30
2023-02-02T03:04:07.291Z,3.03
2023-02-02T03:09:13.681Z,2.65
2023-02-02T03:14:15.751Z,2.22
2023-02-02T03:19:17.837Z,2.65
2023-02-02T03:24:19.916Z,2.47
2023-02-02T03:29:22.014Z,2.13
2023-02-02T03:34:24.024Z,2.20
2023-02-02T03:39:26.152Z,1.90
2023-02-02T03:44:28.181Z,1.67
2023-02-02T03:49:30.174Z,1.92
2023-02-02T03:54:32.278Z,1.92
2023-02-02T03:59:34.320Z,1.88
2023-02-02T04:04:36.377Z,2.22
2023-02-02T04:09:38.408Z,2.03
2023-02-02T04:14:40.452Z,1.38
2023-02-02T04:19:42.526Z,2.28
2023-02-02T04:24:44.517Z,1.60
2023-02-02T04:29:46.623Z,1.83
2023-02-02T04:34:48.751Z,1.63
2023-02-02T04:39:50.898Z,1.48
2023-02-02T04:44:52.945Z,1.75
2023-02-02T04:49:54.969Z,1.95
2023-02-02T04:54:57.078Z,1.30
2023-02-02T04:59:59.064Z,1.30
2023-02-02T05:05:01.057Z,1.75
2023-02-02T05:10:04.814Z,1.20
2023-02-02T05:15:07.665Z,1.40
2023-02-02T05:20:10.458Z,1.10
2023-02-02T05:25:12.457Z,1.23
2023-02-02T05:30:15.029Z,1.10
2023-02-02T05:35:17.262Z,1.25
2023-02-02T05:40:19.385Z,1.35
2023-02-02T05:45:22.031Z,1.00
2023-02-02T05:50:24.226Z,1.00
2023-02-02T05:55:37.141Z,1.27
2023-02-02T06:00:39.198Z,1.42
2023-02-02T06:05:41.247Z,1.17
2023-02-02T06:10:43.363Z,1.20
2023-02-02T06:15:45.432Z,1.20
2023-02-02T06:20:47.702Z,1.27
2023-02-02T06:25:49.915Z,1.42
2023-02-02T06:30:52.150Z,1.10
2023-02-02T06:35:58.435Z,1.00
2023-02-02T06:41:01.378Z,1.00
2023-02-02T06:46:03.529Z,0.90
2023-02-02T06:51:06.180Z,0.93
2023-02-02T06:56:11.646Z,1.40
2023-02-02T07:01:14.846Z,1.52
2023-02-02T07:06:22.983Z,1.35
2023-02-02T07:11:25.084Z,1.52
2023-02-02T07:16:27.268Z,1.48
2023-02-02T07:21:35.405Z,1.50
2023-02-02T07:26:37.734Z,1.40
2023-02-02T07:31:40.093Z,1.25
2023-02-02T07:36:42.470Z,1.40
2023-02-02T07:41:44.562Z,1.50
2023-02-02T07:46:59.689Z,1.40
2023-02-02T07:52:01.796Z,1.48
2023-02-02T07:57:03.916Z,1.60
2023-02-02T08:02:06.330Z,1.38
2023-02-02T08:07:08.759Z,1.70
2023-02-02T08:12:10.809Z,1.83
2023-02-02T08:17:13.296Z,1.63
2023-02-02T08:22:15.347Z,1.48
2023-02-02T08:27:17.424Z,2.00
2023-02-02T08:32:19.532Z,1.40
2023-02-02T08:37:21.551Z,1.60
2023-02-02T08:42:23.642Z,1.50
2023-02-02T08:47:25.885Z,1.17
2023-02-02T08:52:28.039Z,1.35
2023-02-02T08:57:32.644Z,1.73
2023-02-02T09:02:34.727Z,1.35
2023-02-02T09:07:36.883Z,1.30
2023-02-02T09:12:38.928Z,0.90
2023-02-02T09:17:40.989Z,1.60
2023-02-02T09:22:43.102Z,1.48
2023-02-02T09:27:45.166Z,1.52
2023-02-02T09:32:50.123Z,1.45
2023-02-02T09:37:52.161Z,1.20
2023-02-02T09:43:16.988Z,1.33
2023-02-02T09:48:33.792Z,1.27
2023-02-02T09:53:55.593Z,1.35
2023-02-02T09:59:13.729Z,1.10
2023-02-02T10:04:29.792Z,1.10
2023-02-02T10:09:40.505Z,0.98
2023-02-02T10:14:46.343Z,0.70
2023-02-02T10:19:54.017Z,0.90
2023-02-02T10:24:58.656Z,1.10
2023-02-02T10:30:02.190Z,0.73
2023-02-02T10:35:20.147Z,0.70
2023-02-02T10:40:38.515Z,0.90
2023-02-02T10:45:43.477Z,0.80
2023-02-02T10:50:54.040Z,0.63
2023-02-02T10:56:12.063Z,0.60
2023-02-02T11:01:18.225Z,0.68
2023-02-02T11:06:38.983Z,0.88
2023-02-02T11:11:45.394Z,0.90
2023-02-02T11:17:04.402Z,0.70
2023-02-02T11:22:06.573Z,0.68
2023-02-02T11:27:14.701Z,0.65
2023-02-02T11:32:30.708Z,0.60
2023-02-02T11:37:51.498Z,0.60
2023-02-02T11:42:55.453Z,0.70
2023-02-02T11:48:03.002Z,0.60
2023-02-02T11:53:05.272Z,0.90
2023-02-02T11:58:27.373Z,0.88
2023-02-02T12:03:38.923Z,0.73
2023-02-02T12:08:40.967Z,0.82
2023-02-02T12:13:42.947Z,0.65
2023-02-02T12:19:44.811Z,0.70
2023-02-02T12:25:12.604Z,0.63
2023-02-02T12:30:20.299Z,0.90
2023-02-02T12:36:00.659Z,0.90
2023-02-02T12:41:21.568Z,0.65
2023-02-02T12:46:50.986Z,0.75
2023-02-02T12:52:13.164Z,0.60
2023-02-02T12:57:17.940Z,0.57
2023-02-02T13:02:38.940Z,0.73
2023-02-02T13:07:47.804Z,0.85
2023-02-02T13:12:56.315Z,0.60
2023-02-02T13:18:02.121Z,0.70
2023-02-02T13:23:17.532Z,0.50
2023-02-02T13:28:41.826Z,0.82
2023-02-02T13:33:48.393Z,0.93
2023-02-02T13:38:50.718Z,0.70
2023-02-02T13:44:18.141Z,1.00
2023-02-02T13:49:36.575Z,0.80
2023-02-02T13:54:50.638Z,0.90
2023-02-02T14:00:24.883Z,0.88
2023-02-02T14:05:38.045Z,1.10
2023-02-02T14:10:44.251Z,1.00
2023-02-02T14:15:46.363Z,0.95
2023-02-02T14:20:49.198Z,1.10
2023-02-02T14:26:08.859Z,0.90
2023-02-02T14:31:29.645Z,0.95
2023-02-02T14:36:32.004Z,1.08
2023-02-02T14:42:08.184Z,4.13
2023-02-02T14:47:47.488Z,0.98
2023-02-02T14:53:08.486Z,0.90
2023-02-02T14:58:21.368Z,0.77
2023-02-02T15:03:51.015Z,0.60
2023-02-02T15:09:36.743Z,0.90
2023-02-02T15:14:45.128Z,0.70
2023-02-02T15:20:23.572Z,1.08
2023-02-02T15:25:38.792Z,0.90
2023-02-02T15:30:45.249Z,1.35
2023-02-02T15:35:48.340Z,0.95
2023-02-02T15:40:50.761Z,1.00
2023-02-02T15:46:01.285Z,0.95
2023-02-02T15:51:17.599Z,0.88
2023-02-02T15:56:25.674Z,0.85
2023-02-02T16:01:31.969Z,0.90
2023-02-02T16:06:34.851Z,1.23
2023-02-02T16:11:42.324Z,1.00
2023-02-02T16:16:47.264Z,1.30
2023-02-02T16:22:21.858Z,1.38
2023-02-02T16:27:26.834Z,1.25
2023-02-02T16:32:34.748Z,0.70
2023-02-02T16:37:36.777Z,0.73
2023-02-02T16:42:38.783Z,0.75
2023-02-02T16:47:40.833Z,0.98
2023-02-02T16:52:55.699Z,1.00
2023-02-02T16:57:59.333Z,1.10
2023-02-02T17:03:11.000Z,1.20
2023-02-02T17:08:13.941Z,1.00
2023-02-02T17:13:31.116Z,1.13
2023-02-02T17:18:33.216Z,0.93
2023-02-02T17:23:36.927Z,1.10
2023-02-02T17:28:41.303Z,1.60
2023-02-02T17:33:43.693Z,1.63
2023-02-02T17:38:45.764Z,1.52
2023-02-02T17:43:47.835Z,2.88
2023-02-02T17:48:49.869Z,10.40
2023-02-02T17:53:52.305Z,7.82
2023-02-02T17:58:55.019Z,4.85
2023-02-02T18:03:57.287Z,2.83
2023-02-02T18:08:59.411Z,1.90
2023-02-02T18:14:01.473Z,2.15
2023-02-02T18:19:04.530Z,2.25
2023-02-02T18:24:06.601Z,2.13
2023-02-02T18:29:08.776Z,2.10
2023-02-02T18:34:10.862Z,2.10
2023-02-02T18:39:12.862Z,2.30
2023-02-02T18:44:14.949Z,1.92
2023-02-02T18:49:17.587Z,2.40
2023-02-02T18:54:19.652Z,1.73
2023-02-02T18:59:21.667Z,1.85
2023-02-02T19:04:23.805Z,1.50
2023-02-02T19:09:26.020Z,1.65
2023-02-02T19:14:34.452Z,1.75
2023-02-02T19:19:36.994Z,1.80
2023-02-02T19:24:40.771Z,1.60
2023-02-02T19:29:43.021Z,2.15
2023-02-02T19:34:46.628Z,2.03
2023-02-02T19:39:48.737Z,2.17
2023-02-02T19:44:51.031Z,1.90
2023-02-02T19:49:53.194Z,1.85
2023-02-02T19:54:55.472Z,2.28
2023-02-02T19:59:57.507Z,2.10
2023-02-02T20:05:07.333Z,1.92
2023-02-02T20:10:18.615Z,1.88
2023-02-02T20:15:20.608Z,2.00
2023-02-02T20:20:39.416Z,2.17
2023-02-02T20:25:44.181Z,2.70
2023-02-02T20:30:49.874Z,2.45
2023-02-02T20:35:51.945Z,1.65
2023-02-02T20:40:54.522Z,1.30
2023-02-02T20:45:56.620Z,1.73
2023-02-02T20:50:59.198Z,1.90
2023-02-02T20:56:02.747Z,1.70
2023-02-02T21:01:05.794Z,1.92
2023-02-02T21:06:07.931Z,2.40
2023-02-02T21:11:09.939Z,2.10
2023-02-02T21:16:12.001Z,3.90
2023-02-02T21:21:15.887Z,2.30
2023-02-02T21:26:22.045Z,2.50
2023-02-02T21:31:25.173Z,2.28
2023-02-02T21:36:34.901Z,2.55
2023-02-02T21:41:37.735Z,2.38
2023-02-02T21:46:40.523Z,2.53
2023-02-02T21:51:42.600Z,2.25
2023-02-02T21:56:44.648Z,1.83
2023-02-02T22:01:51.062Z,2.10
2023-02-02T22:07:14.248Z,2.10
2023-02-02T22:12:24.437Z,1.50
2023-02-02T22:17:42.106Z,2.10
2023-02-02T22:22:50.114Z,2.10
2023-02-02T22:27:55.626Z,2.03
2023-02-02T22:32:57.647Z,2.03
2023-02-02T22:38:00.050Z,1.70
2023-02-02T22:43:07.892Z,2.00
2023-02-02T22:48:10.329Z,1.30
2023-02-02T22:53:14.042Z,1.70
2023-02-02T22:58:16.061Z,1.55
2023-02-02T23:03:18.536Z,1.55
2023-02-02T23:08:20.820Z,1.73
2023-02-02T23:13:23.070Z,1.90
2023-02-02T23:18:25.081Z,1.88
2023-02-02T23:23:27.121Z,1.75
2023-02-02T23:28:29.112Z,1.48
2023-02-02T23:33:31.236Z,1.55
2023-02-02T23:38:33.455Z,1.50
2023-02-02T23:43:35.625Z,1.20
2023-02-02T23:48:37.850Z,1.63
2023-02-02T23:53:40.569Z,1.27
2023-02-02T23:58:42.603Z,1.27
